Terminal Aerodrome Forecast
Issued by NWS Shreveport, LA

Home | Current Version | Previous Version | Text Only | Print | Product List | Glossary On
Versions: 1 2 3 4 5 6 7 8 9 10 11 12 13 14
000
FTUS44 KSHV 021137
TAFSHV
TAF
KSHV 021137Z 0212/0312 VRB03KT P6SM FEW250
     FM021500 10007KT P6SM FEW250
     FM030000 12004KT P6SM SCT250
     FM030600 00000KT P6SM SCT250=

USA.gov is the U.S. government's official web portal to all federal, state and local government web resources and services.